sensor_id;sensor_type;location;lat;lon;timestamp;P1;durP1;ratioP1;P2;durP2;ratioP2
61250;SDS011;47126;47.508;8.590;2024-02-16T00:01:23;15.68;;;6.82;;
61250;SDS011;47126;47.508;8.590;2024-02-16T00:03:49;12.70;;;6.38;;
61250;SDS011;47126;47.508;8.590;2024-02-16T00:06:15;15.50;;;7.43;;
61250;SDS011;47126;47.508;8.590;2024-02-16T00:08:41;12.70;;;6.72;;
61250;SDS011;47126;47.508;8.590;2024-02-16T00:11:07;13.50;;;6.50;;
61250;SDS011;47126;47.508;8.590;2024-02-16T00:13:34;12.80;;;6.28;;
61250;SDS011;47126;47.508;8.590;2024-02-16T00:16:00;12.90;;;6.43;;
61250;SDS011;47126;47.508;8.590;2024-02-16T00:18:26;12.93;;;6.45;;
61250;SDS011;47126;47.508;8.590;2024-02-16T00:20:52;20.02;;;7.47;;
61250;SDS011;47126;47.508;8.590;2024-02-16T00:23:18;12.25;;;6.28;;
61250;SDS011;47126;47.508;8.590;2024-02-16T00:25:47;11.27;;;5.75;;
61250;SDS011;47126;47.508;8.590;2024-02-16T00:28:13;10.48;;;5.75;;
61250;SDS011;47126;47.508;8.590;2024-02-16T00:30:39;12.65;;;6.40;;
61250;SDS011;47126;47.508;8.590;2024-02-16T00:33:06;12.35;;;5.95;;
61250;SDS011;47126;47.508;8.590;2024-02-16T00:35:32;11.57;;;5.90;;
61250;SDS011;47126;47.508;8.590;2024-02-16T00:37:59;13.38;;;6.75;;
61250;SDS011;47126;47.508;8.590;2024-02-16T00:40:25;12.65;;;6.75;;
61250;SDS011;47126;47.508;8.590;2024-02-16T00:42:54;15.45;;;6.80;;
61250;SDS011;47126;47.508;8.590;2024-02-16T00:45:20;14.80;;;8.00;;
61250;SDS011;47126;47.508;8.590;2024-02-16T00:47:46;16.15;;;7.45;;
61250;SDS011;47126;47.508;8.590;2024-02-16T00:50:13;13.35;;;7.75;;
61250;SDS011;47126;47.508;8.590;2024-02-16T00:52:40;15.38;;;7.35;;
61250;SDS011;47126;47.508;8.590;2024-02-16T00:55:07;12.68;;;7.18;;
61250;SDS011;47126;47.508;8.590;2024-02-16T00:57:34;14.25;;;7.93;;
61250;SDS011;47126;47.508;8.590;2024-02-16T01:00:01;14.82;;;7.45;;
61250;SDS011;47126;47.508;8.590;2024-02-16T01:02:28;13.63;;;7.22;;
61250;SDS011;47126;47.508;8.590;2024-02-16T01:04:54;20.38;;;8.45;;
61250;SDS011;47126;47.508;8.590;2024-02-16T01:07:26;16.27;;;7.93;;
61250;SDS011;47126;47.508;8.590;2024-02-16T01:09:53;15.00;;;7.85;;
61250;SDS011;47126;47.508;8.590;2024-02-16T01:12:21;14.90;;;8.40;;
61250;SDS011;47126;47.508;8.590;2024-02-16T01:14:47;18.45;;;8.73;;
61250;SDS011;47126;47.508;8.590;2024-02-16T01:17:13;18.90;;;7.88;;
61250;SDS011;47126;47.508;8.590;2024-02-16T01:19:39;12.80;;;7.25;;
61250;SDS011;47126;47.508;8.590;2024-02-16T01:22:05;15.32;;;8.73;;
61250;SDS011;47126;47.508;8.590;2024-02-16T01:24:31;14.23;;;7.97;;
61250;SDS011;47126;47.508;8.590;2024-02-16T01:26:57;14.05;;;7.72;;
61250;SDS011;47126;47.508;8.590;2024-02-16T01:29:23;17.77;;;8.82;;
61250;SDS011;47126;47.508;8.590;2024-02-16T01:31:54;16.13;;;8.23;;
61250;SDS011;47126;47.508;8.590;2024-02-16T01:34:22;14.55;;;8.18;;
61250;SDS011;47126;47.508;8.590;2024-02-16T01:36:48;15.27;;;8.68;;
61250;SDS011;47126;47.508;8.590;2024-02-16T01:39:14;16.35;;;8.73;;
61250;SDS011;47126;47.508;8.590;2024-02-16T01:41:40;16.85;;;9.25;;
61250;SDS011;47126;47.508;8.590;2024-02-16T01:44:06;15.60;;;8.10;;
61250;SDS011;47126;47.508;8.590;2024-02-16T01:46:33;16.48;;;9.13;;
61250;SDS011;47126;47.508;8.590;2024-02-16T01:49:00;16.92;;;9.10;;
61250;SDS011;47126;47.508;8.590;2024-02-16T01:51:26;14.20;;;7.60;;
61250;SDS011;47126;47.508;8.590;2024-02-16T01:53:52;14.57;;;8.63;;
61250;SDS011;47126;47.508;8.590;2024-02-16T01:56:19;15.35;;;8.55;;
61250;SDS011;47126;47.508;8.590;2024-02-16T01:58:47;17.75;;;8.60;;
61250;SDS011;47126;47.508;8.590;2024-02-16T02:01:13;15.57;;;7.63;;
61250;SDS011;47126;47.508;8.590;2024-02-16T02:03:39;14.48;;;7.60;;
61250;SDS011;47126;47.508;8.590;2024-02-16T02:06:08;13.23;;;7.45;;
61250;SDS011;47126;47.508;8.590;2024-02-16T02:08:34;15.85;;;7.07;;
61250;SDS011;47126;47.508;8.590;2024-02-16T02:11:00;13.80;;;8.10;;
61250;SDS011;47126;47.508;8.590;2024-02-16T02:13:27;17.77;;;9.32;;
61250;SDS011;47126;47.508;8.590;2024-02-16T02:15:54;16.90;;;8.77;;
61250;SDS011;47126;47.508;8.590;2024-02-16T02:18:20;16.02;;;8.40;;
61250;SDS011;47126;47.508;8.590;2024-02-16T02:20:49;14.65;;;7.53;;
61250;SDS011;47126;47.508;8.590;2024-02-16T02:23:16;13.65;;;8.25;;
61250;SDS011;47126;47.508;8.590;2024-02-16T02:25:42;15.25;;;8.35;;
61250;SDS011;47126;47.508;8.590;2024-02-16T02:28:08;16.60;;;9.32;;
61250;SDS011;47126;47.508;8.590;2024-02-16T02:30:33;17.13;;;8.20;;
61250;SDS011;47126;47.508;8.590;2024-02-16T02:32:59;17.52;;;9.05;;
61250;SDS011;47126;47.508;8.590;2024-02-16T02:35:25;18.50;;;7.80;;
61250;SDS011;47126;47.508;8.590;2024-02-16T02:37:51;17.05;;;8.88;;
61250;SDS011;47126;47.508;8.590;2024-02-16T02:40:17;18.77;;;7.95;;
61250;SDS011;47126;47.508;8.590;2024-02-16T02:42:44;15.68;;;8.02;;
61250;SDS011;47126;47.508;8.590;2024-02-16T02:45:10;14.90;;;8.55;;
61250;SDS011;47126;47.508;8.590;2024-02-16T02:47:36;17.88;;;9.10;;
61250;SDS011;47126;47.508;8.590;2024-02-16T02:50:02;17.13;;;8.40;;
61250;SDS011;47126;47.508;8.590;2024-02-16T02:52:29;15.80;;;8.63;;
61250;SDS011;47126;47.508;8.590;2024-02-16T02:54:55;16.20;;;8.38;;
61250;SDS011;47126;47.508;8.590;2024-02-16T02:57:22;15.32;;;8.15;;
61250;SDS011;47126;47.508;8.590;2024-02-16T02:59:48;14.80;;;8.23;;
61250;SDS011;47126;47.508;8.590;2024-02-16T03:02:14;13.77;;;7.88;;
61250;SDS011;47126;47.508;8.590;2024-02-16T03:04:41;15.98;;;8.45;;
61250;SDS011;47126;47.508;8.590;2024-02-16T03:07:07;14.48;;;7.97;;
61250;SDS011;47126;47.508;8.590;2024-02-16T03:09:36;19.17;;;8.13;;
61250;SDS011;47126;47.508;8.590;2024-02-16T03:12:02;15.45;;;8.32;;
61250;SDS011;47126;47.508;8.590;2024-02-16T03:14:28;18.50;;;9.05;;
61250;SDS011;47126;47.508;8.590;2024-02-16T03:16:54;17.65;;;9.02;;
61250;SDS011;47126;47.508;8.590;2024-02-16T03:19:23;18.42;;;8.93;;
61250;SDS011;47126;47.508;8.590;2024-02-16T03:21:49;17.98;;;9.10;;
61250;SDS011;47126;47.508;8.590;2024-02-16T03:24:15;14.57;;;8.43;;
61250;SDS011;47126;47.508;8.590;2024-02-16T03:26:41;13.70;;;7.93;;
61250;SDS011;47126;47.508;8.590;2024-02-16T03:29:07;12.80;;;8.05;;
61250;SDS011;47126;47.508;8.590;2024-02-16T03:31:33;14.80;;;8.23;;
61250;SDS011;47126;47.508;8.590;2024-02-16T03:34:00;16.63;;;7.93;;
61250;SDS011;47126;47.508;8.590;2024-02-16T03:36:26;15.40;;;8.55;;
61250;SDS011;47126;47.508;8.590;2024-02-16T03:38:52;19.10;;;8.23;;
61250;SDS011;47126;47.508;8.590;2024-02-16T03:41:19;21.25;;;9.10;;
61250;SDS011;47126;47.508;8.590;2024-02-16T03:43:45;18.50;;;9.13;;
61250;SDS011;47126;47.508;8.590;2024-02-16T03:46:11;13.60;;;7.38;;
61250;SDS011;47126;47.508;8.590;2024-02-16T03:48:38;15.65;;;7.72;;
61250;SDS011;47126;47.508;8.590;2024-02-16T03:51:06;15.48;;;8.02;;
61250;SDS011;47126;47.508;8.590;2024-02-16T03:53:32;16.73;;;8.65;;
61250;SDS011;47126;47.508;8.590;2024-02-16T03:55:59;14.13;;;7.53;;
61250;SDS011;47126;47.508;8.590;2024-02-16T03:58:24;18.15;;;9.43;;
61250;SDS011;47126;47.508;8.590;2024-02-16T04:00:51;15.90;;;8.93;;
61250;SDS011;47126;47.508;8.590;2024-02-16T04:03:18;16.75;;;8.75;;
61250;SDS011;47126;47.508;8.590;2024-02-16T04:05:44;18.25;;;10.05;;
61250;SDS011;47126;47.508;8.590;2024-02-16T04:08:10;20.02;;;9.93;;
61250;SDS011;47126;47.508;8.590;2024-02-16T04:10:36;14.93;;;8.73;;
61250;SDS011;47126;47.508;8.590;2024-02-16T04:13:02;19.55;;;8.95;;
61250;SDS011;47126;47.508;8.590;2024-02-16T04:15:28;14.98;;;8.95;;
61250;SDS011;47126;47.508;8.590;2024-02-16T04:17:54;18.30;;;8.80;;
61250;SDS011;47126;47.508;8.590;2024-02-16T04:20:22;15.98;;;9.02;;
61250;SDS011;47126;47.508;8.590;2024-02-16T04:22:48;15.32;;;8.90;;
61250;SDS011;47126;47.508;8.590;2024-02-16T04:25:14;17.10;;;8.20;;
61250;SDS011;47126;47.508;8.590;2024-02-16T04:27:40;16.60;;;8.25;;
61250;SDS011;47126;47.508;8.590;2024-02-16T04:30:06;14.00;;;8.57;;
61250;SDS011;47126;47.508;8.590;2024-02-16T04:32:32;15.20;;;8.90;;
61250;SDS011;47126;47.508;8.590;2024-02-16T04:34:58;15.93;;;9.38;;
61250;SDS011;47126;47.508;8.590;2024-02-16T04:37:25;16.52;;;8.50;;
61250;SDS011;47126;47.508;8.590;2024-02-16T04:39:51;16.90;;;9.25;;
61250;SDS011;47126;47.508;8.590;2024-02-16T04:42:17;19.33;;;10.57;;
61250;SDS011;47126;47.508;8.590;2024-02-16T04:44:43;16.13;;;9.00;;
61250;SDS011;47126;47.508;8.590;2024-02-16T04:47:09;16.52;;;8.93;;
61250;SDS011;47126;47.508;8.590;2024-02-16T04:49:35;17.90;;;8.75;;
61250;SDS011;47126;47.508;8.590;2024-02-16T04:52:02;15.55;;;8.85;;
61250;SDS011;47126;47.508;8.590;2024-02-16T04:54:28;16.33;;;9.20;;
61250;SDS011;47126;47.508;8.590;2024-02-16T04:56:54;18.38;;;9.48;;
61250;SDS011;47126;47.508;8.590;2024-02-16T04:59:20;18.58;;;9.65;;
61250;SDS011;47126;47.508;8.590;2024-02-16T05:01:46;18.63;;;8.70;;
61250;SDS011;47126;47.508;8.590;2024-02-16T05:04:15;19.05;;;9.98;;
61250;SDS011;47126;47.508;8.590;2024-02-16T05:06:45;14.98;;;8.90;;
61250;SDS011;47126;47.508;8.590;2024-02-16T05:09:11;17.45;;;8.82;;
61250;SDS011;47126;47.508;8.590;2024-02-16T05:11:41;16.00;;;8.00;;
61250;SDS011;47126;47.508;8.590;2024-02-16T05:14:07;18.00;;;9.05;;
61250;SDS011;47126;47.508;8.590;2024-02-16T05:16:37;14.63;;;8.90;;
61250;SDS011;47126;47.508;8.590;2024-02-16T05:19:03;17.15;;;8.68;;
61250;SDS011;47126;47.508;8.590;2024-02-16T05:21:29;16.55;;;9.23;;
61250;SDS011;47126;47.508;8.590;2024-02-16T05:23:55;15.88;;;8.55;;
61250;SDS011;47126;47.508;8.590;2024-02-16T05:26:21;15.20;;;8.38;;
61250;SDS011;47126;47.508;8.590;2024-02-16T05:28:47;14.32;;;8.65;;
61250;SDS011;47126;47.508;8.590;2024-02-16T05:31:15;16.23;;;8.90;;
61250;SDS011;47126;47.508;8.590;2024-02-16T05:33:47;16.67;;;9.30;;
61250;SDS011;47126;47.508;8.590;2024-02-16T05:38:40;15.32;;;7.90;;
61250;SDS011;47126;47.508;8.590;2024-02-16T05:41:07;19.70;;;8.57;;
61250;SDS011;47126;47.508;8.590;2024-02-16T05:43:36;15.60;;;9.23;;
61250;SDS011;47126;47.508;8.590;2024-02-16T05:46:05;16.38;;;8.80;;
61250;SDS011;47126;47.508;8.590;2024-02-16T05:48:38;14.20;;;8.32;;
61250;SDS011;47126;47.508;8.590;2024-02-16T05:51:05;15.35;;;8.43;;
61250;SDS011;47126;47.508;8.590;2024-02-16T05:53:34;17.08;;;9.25;;
61250;SDS011;47126;47.508;8.590;2024-02-16T05:56:00;16.10;;;8.60;;
61250;SDS011;47126;47.508;8.590;2024-02-16T05:58:26;17.80;;;9.20;;
61250;SDS011;47126;47.508;8.590;2024-02-16T06:00:54;20.98;;;10.95;;
61250;SDS011;47126;47.508;8.590;2024-02-16T06:03:20;20.60;;;9.48;;
61250;SDS011;47126;47.508;8.590;2024-02-16T06:05:47;16.40;;;9.52;;
61250;SDS011;47126;47.508;8.590;2024-02-16T06:08:13;17.25;;;9.55;;
61250;SDS011;47126;47.508;8.590;2024-02-16T06:10:42;18.73;;;10.77;;
61250;SDS011;47126;47.508;8.590;2024-02-16T06:13:08;18.73;;;10.57;;
61250;SDS011;47126;47.508;8.590;2024-02-16T06:15:34;19.77;;;11.05;;
61250;SDS011;47126;47.508;8.590;2024-02-16T06:18:02;18.60;;;10.30;;
61250;SDS011;47126;47.508;8.590;2024-02-16T06:20:28;16.65;;;9.18;;
61250;SDS011;47126;47.508;8.590;2024-02-16T06:22:54;21.60;;;9.75;;
61250;SDS011;47126;47.508;8.590;2024-02-16T06:25:20;20.00;;;11.10;;
61250;SDS011;47126;47.508;8.590;2024-02-16T06:27:46;27.75;;;9.90;;
61250;SDS011;47126;47.508;8.590;2024-02-16T06:30:12;19.02;;;10.27;;
61250;SDS011;47126;47.508;8.590;2024-02-16T06:32:39;22.95;;;11.35;;
61250;SDS011;47126;47.508;8.590;2024-02-16T06:35:08;20.33;;;10.05;;
61250;SDS011;47126;47.508;8.590;2024-02-16T06:37:34;20.40;;;10.52;;
61250;SDS011;47126;47.508;8.590;2024-02-16T06:40:02;22.52;;;10.48;;
61250;SDS011;47126;47.508;8.590;2024-02-16T06:42:29;20.42;;;10.90;;
61250;SDS011;47126;47.508;8.590;2024-02-16T06:44:55;18.98;;;11.45;;
61250;SDS011;47126;47.508;8.590;2024-02-16T06:47:21;20.00;;;10.60;;
61250;SDS011;47126;47.508;8.590;2024-02-16T06:49:50;17.10;;;10.60;;
61250;SDS011;47126;47.508;8.590;2024-02-16T06:52:16;19.67;;;11.60;;
61250;SDS011;47126;47.508;8.590;2024-02-16T06:54:42;23.30;;;10.88;;
61250;SDS011;47126;47.508;8.590;2024-02-16T06:57:12;24.65;;;11.38;;
61250;SDS011;47126;47.508;8.590;2024-02-16T06:59:38;20.73;;;10.52;;
61250;SDS011;47126;47.508;8.590;2024-02-16T07:02:06;19.05;;;10.73;;
61250;SDS011;47126;47.508;8.590;2024-02-16T07:04:32;22.35;;;11.63;;
61250;SDS011;47126;47.508;8.590;2024-02-16T07:06:58;19.63;;;10.45;;
61250;SDS011;47126;47.508;8.590;2024-02-16T07:09:24;32.47;;;14.13;;
61250;SDS011;47126;47.508;8.590;2024-02-16T07:11:51;26.83;;;12.38;;
61250;SDS011;47126;47.508;8.590;2024-02-16T07:14:20;27.48;;;12.27;;
61250;SDS011;47126;47.508;8.590;2024-02-16T07:16:46;22.92;;;12.40;;
61250;SDS011;47126;47.508;8.590;2024-02-16T07:19:14;22.83;;;11.20;;
61250;SDS011;47126;47.508;8.590;2024-02-16T07:21:40;29.73;;;12.52;;
61250;SDS011;47126;47.508;8.590;2024-02-16T07:24:06;23.00;;;12.40;;
61250;SDS011;47126;47.508;8.590;2024-02-16T07:26:35;21.38;;;12.55;;
61250;SDS011;47126;47.508;8.590;2024-02-16T07:29:01;24.83;;;11.98;;
61250;SDS011;47126;47.508;8.590;2024-02-16T07:31:33;26.17;;;12.43;;
61250;SDS011;47126;47.508;8.590;2024-02-16T07:34:00;30.40;;;13.00;;
61250;SDS011;47126;47.508;8.590;2024-02-16T07:36:26;23.17;;;12.05;;
61250;SDS011;47126;47.508;8.590;2024-02-16T07:38:52;30.65;;;12.32;;
61250;SDS011;47126;47.508;8.590;2024-02-16T07:41:21;22.27;;;11.35;;
61250;SDS011;47126;47.508;8.590;2024-02-16T07:43:47;15.35;;;8.70;;
61250;SDS011;47126;47.508;8.590;2024-02-16T07:46:13;18.55;;;10.02;;
61250;SDS011;47126;47.508;8.590;2024-02-16T07:48:40;24.50;;;10.20;;
61250;SDS011;47126;47.508;8.590;2024-02-16T07:51:06;18.25;;;9.07;;
61250;SDS011;47126;47.508;8.590;2024-02-16T07:53:33;24.33;;;10.00;;
61250;SDS011;47126;47.508;8.590;2024-02-16T07:55:59;20.33;;;10.65;;
61250;SDS011;47126;47.508;8.590;2024-02-16T07:58:28;22.02;;;10.60;;
61250;SDS011;47126;47.508;8.590;2024-02-16T08:00:54;18.38;;;10.85;;
61250;SDS011;47126;47.508;8.590;2024-02-16T08:03:23;20.50;;;9.73;;
61250;SDS011;47126;47.508;8.590;2024-02-16T08:05:49;19.17;;;10.50;;
61250;SDS011;47126;47.508;8.590;2024-02-16T08:08:15;21.83;;;10.15;;
61250;SDS011;47126;47.508;8.590;2024-02-16T08:10:44;22.02;;;10.43;;
61250;SDS011;47126;47.508;8.590;2024-02-16T08:13:12;21.55;;;10.18;;
61250;SDS011;47126;47.508;8.590;2024-02-16T08:15:38;16.73;;;9.68;;
61250;SDS011;47126;47.508;8.590;2024-02-16T08:18:04;20.52;;;9.45;;
61250;SDS011;47126;47.508;8.590;2024-02-16T08:20:30;19.23;;;9.07;;
61250;SDS011;47126;47.508;8.590;2024-02-16T08:22:56;18.17;;;10.32;;
61250;SDS011;47126;47.508;8.590;2024-02-16T08:25:24;17.90;;;11.18;;
61250;SDS011;47126;47.508;8.590;2024-02-16T08:27:50;18.73;;;10.38;;
61250;SDS011;47126;47.508;8.590;2024-02-16T08:30:16;22.02;;;10.57;;
61250;SDS011;47126;47.508;8.590;2024-02-16T08:32:42;21.25;;;11.35;;
61250;SDS011;47126;47.508;8.590;2024-02-16T08:35:09;16.90;;;9.48;;
61250;SDS011;47126;47.508;8.590;2024-02-16T08:37:35;18.77;;;8.90;;
61250;SDS011;47126;47.508;8.590;2024-02-16T08:40:05;16.73;;;8.60;;
61250;SDS011;47126;47.508;8.590;2024-02-16T08:42:34;17.00;;;9.50;;
61250;SDS011;47126;47.508;8.590;2024-02-16T08:45:00;18.65;;;10.32;;
61250;SDS011;47126;47.508;8.590;2024-02-16T08:47:27;15.68;;;10.10;;
61250;SDS011;47126;47.508;8.590;2024-02-16T08:49:53;17.77;;;9.48;;
61250;SDS011;47126;47.508;8.590;2024-02-16T08:52:19;16.48;;;8.73;;
61250;SDS011;47126;47.508;8.590;2024-02-16T08:54:46;14.57;;;9.25;;
61250;SDS011;47126;47.508;8.590;2024-02-16T08:57:15;20.70;;;12.63;;
61250;SDS011;47126;47.508;8.590;2024-02-16T08:59:41;15.95;;;10.13;;
61250;SDS011;47126;47.508;8.590;2024-02-16T09:02:07;16.85;;;8.02;;
61250;SDS011;47126;47.508;8.590;2024-02-16T09:04:34;57.15;;;26.48;;
61250;SDS011;47126;47.508;8.590;2024-02-16T09:07:00;31.80;;;16.25;;
61250;SDS011;47126;47.508;8.590;2024-02-16T09:09:26;42.72;;;23.30;;
61250;SDS011;47126;47.508;8.590;2024-02-16T09:11:53;20.95;;;12.50;;
61250;SDS011;47126;47.508;8.590;2024-02-16T09:14:19;17.80;;;11.82;;
61250;SDS011;47126;47.508;8.590;2024-02-16T09:16:48;21.48;;;11.52;;
61250;SDS011;47126;47.508;8.590;2024-02-16T09:19:18;21.17;;;10.88;;
61250;SDS011;47126;47.508;8.590;2024-02-16T09:21:48;18.65;;;10.70;;
61250;SDS011;47126;47.508;8.590;2024-02-16T09:24:19;21.60;;;8.57;;
61250;SDS011;47126;47.508;8.590;2024-02-16T09:26:45;15.18;;;8.07;;
61250;SDS011;47126;47.508;8.590;2024-02-16T09:29:12;12.10;;;5.63;;
61250;SDS011;47126;47.508;8.590;2024-02-16T09:31:39;9.52;;;5.07;;
61250;SDS011;47126;47.508;8.590;2024-02-16T09:34:05;10.88;;;5.47;;
61250;SDS011;47126;47.508;8.590;2024-02-16T09:36:31;9.18;;;5.43;;
61250;SDS011;47126;47.508;8.590;2024-02-16T09:38:57;13.40;;;5.13;;
61250;SDS011;47126;47.508;8.590;2024-02-16T09:41:26;11.70;;;5.35;;
61250;SDS011;47126;47.508;8.590;2024-02-16T09:43:53;61.50;;;51.53;;
61250;SDS011;47126;47.508;8.590;2024-02-16T09:46:21;46.95;;;29.50;;
61250;SDS011;47126;47.508;8.590;2024-02-16T09:48:47;11.07;;;5.43;;
61250;SDS011;47126;47.508;8.590;2024-02-16T09:51:17;9.27;;;5.00;;
61250;SDS011;47126;47.508;8.590;2024-02-16T09:53:49;13.63;;;5.97;;
61250;SDS011;47126;47.508;8.590;2024-02-16T09:56:28;12.27;;;5.32;;
61250;SDS011;47126;47.508;8.590;2024-02-16T09:58:54;12.02;;;5.38;;
61250;SDS011;47126;47.508;8.590;2024-02-16T10:01:21;9.27;;;5.40;;
61250;SDS011;47126;47.508;8.590;2024-02-16T10:03:48;14.40;;;5.75;;
61250;SDS011;47126;47.508;8.590;2024-02-16T10:06:15;10.05;;;5.63;;
61250;SDS011;47126;47.508;8.590;2024-02-16T10:11:15;11.90;;;5.35;;
61250;SDS011;47126;47.508;8.590;2024-02-16T10:13:41;14.18;;;5.10;;
61250;SDS011;47126;47.508;8.590;2024-02-16T10:16:08;8.23;;;5.00;;
61250;SDS011;47126;47.508;8.590;2024-02-16T10:18:38;11.45;;;5.10;;
61250;SDS011;47126;47.508;8.590;2024-02-16T10:21:04;9.80;;;5.43;;
61250;SDS011;47126;47.508;8.590;2024-02-16T10:23:30;16.25;;;5.13;;
61250;SDS011;47126;47.508;8.590;2024-02-16T10:26:00;10.73;;;4.80;;
61250;SDS011;47126;47.508;8.590;2024-02-16T10:28:27;8.60;;;4.97;;
61250;SDS011;47126;47.508;8.590;2024-02-16T10:30:59;9.93;;;5.35;;
61250;SDS011;47126;47.508;8.590;2024-02-16T10:33:26;12.80;;;4.75;;
61250;SDS011;47126;47.508;8.590;2024-02-16T10:35:53;10.20;;;5.30;;
61250;SDS011;47126;47.508;8.590;2024-02-16T10:38:22;10.13;;;4.93;;
61250;SDS011;47126;47.508;8.590;2024-02-16T10:40:48;12.38;;;5.22;;
61250;SDS011;47126;47.508;8.590;2024-02-16T10:43:17;10.25;;;4.93;;
61250;SDS011;47126;47.508;8.590;2024-02-16T10:45:47;10.07;;;5.07;;
61250;SDS011;47126;47.508;8.590;2024-02-16T10:48:17;10.23;;;5.35;;
61250;SDS011;47126;47.508;8.590;2024-02-16T10:50:43;9.85;;;4.60;;
61250;SDS011;47126;47.508;8.590;2024-02-16T10:53:19;44.83;;;5.47;;
61250;SDS011;47126;47.508;8.590;2024-02-16T10:55:46;8.50;;;4.10;;
61250;SDS011;47126;47.508;8.590;2024-02-16T10:58:16;9.25;;;4.20;;
61250;SDS011;47126;47.508;8.590;2024-02-16T11:00:49;17.25;;;3.90;;
61250;SDS011;47126;47.508;8.590;2024-02-16T11:03:16;9.50;;;3.97;;
61250;SDS011;47126;47.508;8.590;2024-02-16T11:05:46;7.45;;;3.90;;
61250;SDS011;47126;47.508;8.590;2024-02-16T11:08:16;10.88;;;3.63;;
61250;SDS011;47126;47.508;8.590;2024-02-16T11:10:55;8.23;;;3.92;;
61250;SDS011;47126;47.508;8.590;2024-02-16T11:13:22;6.47;;;3.33;;
61250;SDS011;47126;47.508;8.590;2024-02-16T11:15:58;8.10;;;3.37;;
61250;SDS011;47126;47.508;8.590;2024-02-16T11:18:25;6.07;;;3.58;;
61250;SDS011;47126;47.508;8.590;2024-02-16T11:20:53;9.07;;;3.90;;
61250;SDS011;47126;47.508;8.590;2024-02-16T11:23:27;6.40;;;3.42;;
61250;SDS011;47126;47.508;8.590;2024-02-16T11:25:54;5.85;;;3.25;;
61250;SDS011;47126;47.508;8.590;2024-02-16T11:28:20;9.50;;;3.90;;
61250;SDS011;47126;47.508;8.590;2024-02-16T11:30:46;9.35;;;3.67;;
61250;SDS011;47126;47.508;8.590;2024-02-16T11:33:12;11.57;;;3.63;;
61250;SDS011;47126;47.508;8.590;2024-02-16T11:35:39;8.77;;;3.38;;
61250;SDS011;47126;47.508;8.590;2024-02-16T11:38:05;8.43;;;3.53;;
61250;SDS011;47126;47.508;8.590;2024-02-16T11:40:31;6.00;;;3.60;;
61250;SDS011;47126;47.508;8.590;2024-02-16T11:42:58;10.18;;;3.70;;
61250;SDS011;47126;47.508;8.590;2024-02-16T11:45:25;6.88;;;3.60;;
61250;SDS011;47126;47.508;8.590;2024-02-16T11:47:51;8.73;;;3.40;;
61250;SDS011;47126;47.508;8.590;2024-02-16T11:50:20;6.43;;;3.20;;
61250;SDS011;47126;47.508;8.590;2024-02-16T11:52:47;8.25;;;3.58;;
61250;SDS011;47126;47.508;8.590;2024-02-16T11:55:13;7.93;;;3.47;;
61250;SDS011;47126;47.508;8.590;2024-02-16T11:57:40;7.10;;;3.50;;
61250;SDS011;47126;47.508;8.590;2024-02-16T12:00:07;5.55;;;3.10;;
61250;SDS011;47126;47.508;8.590;2024-02-16T12:02:35;8.85;;;3.60;;
61250;SDS011;47126;47.508;8.590;2024-02-16T12:05:04;8.00;;;2.97;;
61250;SDS011;47126;47.508;8.590;2024-02-16T12:07:31;8.27;;;3.20;;
61250;SDS011;47126;47.508;8.590;2024-02-16T12:09:59;6.00;;;2.80;;
61250;SDS011;47126;47.508;8.590;2024-02-16T12:12:26;6.82;;;3.08;;
61250;SDS011;47126;47.508;8.590;2024-02-16T12:14:55;7.90;;;2.65;;
61250;SDS011;47126;47.508;8.590;2024-02-16T12:17:22;6.90;;;2.78;;
61250;SDS011;47126;47.508;8.590;2024-02-16T12:19:49;8.20;;;3.13;;
61250;SDS011;47126;47.508;8.590;2024-02-16T12:22:22;9.80;;;3.03;;
61250;SDS011;47126;47.508;8.590;2024-02-16T12:24:52;6.53;;;3.17;;
61250;SDS011;47126;47.508;8.590;2024-02-16T12:27:18;10.75;;;4.10;;
61250;SDS011;47126;47.508;8.590;2024-02-16T12:29:44;6.65;;;3.10;;
61250;SDS011;47126;47.508;8.590;2024-02-16T12:32:10;7.65;;;3.03;;
61250;SDS011;47126;47.508;8.590;2024-02-16T12:34:36;8.43;;;3.03;;
61250;SDS011;47126;47.508;8.590;2024-02-16T12:37:06;6.55;;;3.10;;
61250;SDS011;47126;47.508;8.590;2024-02-16T12:39:33;7.60;;;2.97;;
61250;SDS011;47126;47.508;8.590;2024-02-16T12:41:59;5.68;;;2.85;;
61250;SDS011;47126;47.508;8.590;2024-02-16T12:44:25;6.80;;;3.15;;
61250;SDS011;47126;47.508;8.590;2024-02-16T12:46:51;9.05;;;3.45;;
61250;SDS011;47126;47.508;8.590;2024-02-16T12:49:17;6.72;;;3.20;;
61250;SDS011;47126;47.508;8.590;2024-02-16T12:51:48;7.97;;;2.83;;
61250;SDS011;47126;47.508;8.590;2024-02-16T12:54:14;6.25;;;2.97;;
61250;SDS011;47126;47.508;8.590;2024-02-16T12:56:43;10.85;;;3.47;;
61250;SDS011;47126;47.508;8.590;2024-02-16T12:59:10;7.93;;;2.75;;
61250;SDS011;47126;47.508;8.590;2024-02-16T13:01:36;9.50;;;3.22;;
61250;SDS011;47126;47.508;8.590;2024-02-16T13:04:03;5.78;;;2.65;;
61250;SDS011;47126;47.508;8.590;2024-02-16T13:06:30;4.68;;;2.78;;
61250;SDS011;47126;47.508;8.590;2024-02-16T13:08:56;5.13;;;2.60;;
61250;SDS011;47126;47.508;8.590;2024-02-16T13:11:22;6.40;;;2.58;;
61250;SDS011;47126;47.508;8.590;2024-02-16T13:13:48;6.60;;;3.00;;
61250;SDS011;47126;47.508;8.590;2024-02-16T13:16:16;7.07;;;2.67;;
61250;SDS011;47126;47.508;8.590;2024-02-16T13:18:42;6.22;;;2.65;;
61250;SDS011;47126;47.508;8.590;2024-02-16T13:21:08;4.75;;;2.10;;
61250;SDS011;47126;47.508;8.590;2024-02-16T13:23:34;6.53;;;1.98;;
61250;SDS011;47126;47.508;8.590;2024-02-16T13:26:01;3.97;;;2.05;;
61250;SDS011;47126;47.508;8.590;2024-02-16T13:28:27;6.97;;;2.20;;
61250;SDS011;47126;47.508;8.590;2024-02-16T13:30:53;7.80;;;2.58;;
61250;SDS011;47126;47.508;8.590;2024-02-16T13:33:19;14.63;;;2.08;;
61250;SDS011;47126;47.508;8.590;2024-02-16T13:35:45;4.15;;;1.60;;
61250;SDS011;47126;47.508;8.590;2024-02-16T13:38:14;7.38;;;2.95;;
61250;SDS011;47126;47.508;8.590;2024-02-16T13:40:46;5.15;;;2.10;;
61250;SDS011;47126;47.508;8.590;2024-02-16T13:43:14;5.53;;;1.98;;
61250;SDS011;47126;47.508;8.590;2024-02-16T13:45:53;4.38;;;2.00;;
61250;SDS011;47126;47.508;8.590;2024-02-16T13:48:19;7.35;;;2.15;;
61250;SDS011;47126;47.508;8.590;2024-02-16T13:50:47;4.95;;;2.28;;
61250;SDS011;47126;47.508;8.590;2024-02-16T13:53:13;6.68;;;2.13;;
61250;SDS011;47126;47.508;8.590;2024-02-16T13:55:40;4.65;;;2.08;;
61250;SDS011;47126;47.508;8.590;2024-02-16T13:58:06;6.88;;;2.45;;
61250;SDS011;47126;47.508;8.590;2024-02-16T14:00:33;5.22;;;2.33;;
61250;SDS011;47126;47.508;8.590;2024-02-16T14:02:59;5.93;;;2.22;;
61250;SDS011;47126;47.508;8.590;2024-02-16T14:05:25;6.22;;;2.30;;
61250;SDS011;47126;47.508;8.590;2024-02-16T14:07:51;4.68;;;2.10;;
61250;SDS011;47126;47.508;8.590;2024-02-16T14:10:17;5.82;;;2.35;;
61250;SDS011;47126;47.508;8.590;2024-02-16T14:12:47;6.57;;;2.05;;
61250;SDS011;47126;47.508;8.590;2024-02-16T14:15:13;6.93;;;1.80;;
61250;SDS011;47126;47.508;8.590;2024-02-16T14:17:40;5.57;;;1.70;;
61250;SDS011;47126;47.508;8.590;2024-02-16T14:20:07;3.83;;;1.80;;
61250;SDS011;47126;47.508;8.590;2024-02-16T14:22:33;7.13;;;2.05;;
61250;SDS011;47126;47.508;8.590;2024-02-16T14:24:59;8.85;;;1.85;;
61250;SDS011;47126;47.508;8.590;2024-02-16T14:27:25;6.40;;;1.80;;
61250;SDS011;47126;47.508;8.590;2024-02-16T14:29:51;3.63;;;1.73;;
61250;SDS011;47126;47.508;8.590;2024-02-16T14:32:17;3.38;;;1.73;;
61250;SDS011;47126;47.508;8.590;2024-02-16T14:34:43;7.57;;;2.05;;
61250;SDS011;47126;47.508;8.590;2024-02-16T14:37:10;9.18;;;2.20;;
61250;SDS011;47126;47.508;8.590;2024-02-16T14:39:36;4.13;;;2.20;;